Time;durP1;ratioP1;P1;durP2;ratioP2;P2;SDS_P1;SDS_P2;PMS_P1;PMS_P2;Temp;Humidity;BMP_temperature;BMP_pressure;BME280_temperature;BME280_humidity;BME280_pressure;Samples;Min_cycle;Max_cycle;Signal;HPM_P1;HPM_P2
2024/03/15 00:00:53;;;;;;;22.27;12.10;;;12.40;99.90;;;;;;5107644;27;20254;-68
2024/03/15 00:03:20;;;;;;;17.57;10.67;;;12.40;99.90;;;;;;5128035;27;20235;-68
2024/03/15 00:05:48;;;;;;;14.67;9.13;;;12.40;99.90;;;;;;5140871;27;20271;-68
2024/03/15 00:08:15;;;;;;;21.40;12.57;;;12.40;99.90;;;;;;5102230;28;20194;-68
2024/03/15 00:10:43;;;;;;;20.43;12.57;;;12.40;99.90;;;;;;5146865;27;20677;-68
2024/03/15 00:13:11;;;;;;;20.77;10.90;;;12.40;99.90;;;;;;5110875;27;20244;-68
2024/03/15 00:15:39;;;;;;;23.00;13.00;;;12.40;99.90;;;;;;5111702;28;20630;-68
2024/03/15 00:18:06;;;;;;;17.13;10.80;;;12.40;99.90;;;;;;5113477;27;20198;-69
2024/03/15 00:20:34;;;;;;;16.83;10.67;;;12.30;99.90;;;;;;5112016;28;20628;-67
2024/03/15 00:23:01;;;;;;;18.67;11.27;;;12.30;99.90;;;;;;5112307;28;20567;-68
2024/03/15 00:25:28;;;;;;;17.67;11.40;;;12.30;99.90;;;;;;5108218;28;20200;-68
2024/03/15 00:27:55;;;;;;;17.90;11.03;;;12.30;99.90;;;;;;5107647;28;20267;-68
2024/03/15 00:30:23;;;;;;;19.70;12.27;;;12.30;99.90;;;;;;5144456;27;20196;-68
2024/03/15 00:32:52;;;;;;;17.50;9.60;;;12.30;99.90;;;;;;5102338;28;20196;-68
2024/03/15 00:35:20;;;;;;;19.47;10.57;;;12.30;99.90;;;;;;5111795;28;20228;-67
2024/03/15 00:37:47;;;;;;;18.23;10.07;;;12.30;99.90;;;;;;5113531;28;20660;-68
2024/03/15 00:40:14;;;;;;;17.20;9.67;;;12.30;99.90;;;;;;5109527;28;20287;-68
2024/03/15 00:42:41;;;;;;;16.37;9.63;;;12.30;99.90;;;;;;5108313;28;20271;-68
2024/03/15 00:45:09;;;;;;;11.90;8.17;;;12.30;99.90;;;;;;5092337;28;20316;-69
2024/03/15 00:47:37;;;;;;;17.47;10.30;;;12.40;99.90;;;;;;5109423;28;20193;-68
2024/03/15 00:50:04;;;;;;;15.60;9.60;;;12.40;99.90;;;;;;5106644;28;20199;-68
2024/03/15 00:52:31;;;;;;;17.67;10.27;;;12.40;99.90;;;;;;5110963;28;20534;-68
2024/03/15 00:54:58;;;;;;;16.37;10.07;;;12.40;99.90;;;;;;5131663;27;20203;-69
2024/03/15 00:57:25;;;;;;;12.17;7.97;;;12.40;99.90;;;;;;5137762;27;20726;-68
2024/03/15 00:59:52;;;;;;;12.57;7.87;;;12.40;99.90;;;;;;5112984;28;20217;-68
2024/03/15 01:02:20;;;;;;;9.17;6.43;;;12.40;99.90;;;;;;5113339;27;20244;-68
2024/03/15 01:04:47;;;;;;;12.43;7.07;;;12.40;99.90;;;;;;5115611;27;20556;-67
2024/03/15 01:07:14;;;;;;;13.93;7.60;;;12.40;99.90;;;;;;5117671;27;20297;-67
2024/03/15 01:09:41;;;;;;;11.03;7.53;;;12.50;99.90;;;;;;5110934;27;20241;-68
2024/03/15 01:12:08;;;;;;;15.83;7.80;;;12.40;99.90;;;;;;5106022;27;20252;-68
2024/03/15 01:14:35;;;;;;;13.53;7.70;;;12.40;99.90;;;;;;5096746;27;20191;-68
2024/03/15 01:17:02;;;;;;;8.83;6.47;;;12.40;99.90;;;;;;5097286;27;20327;-68
2024/03/15 01:19:32;;;;;;;9.77;6.60;;;12.50;99.90;;;;;;5115117;27;20229;-67
2024/03/15 01:22:00;;;;;;;7.77;5.50;;;12.50;99.90;;;;;;5108625;27;20200;-68
2024/03/15 01:24:28;;;;;;;7.03;5.20;;;12.50;99.90;;;;;;5116515;27;20263;-68
2024/03/15 01:26:56;;;;;;;8.53;6.07;;;12.50;99.90;;;;;;5111351;27;20221;-68
2024/03/15 01:29:24;;;;;;;13.93;8.90;;;12.50;99.90;;;;;;5112005;27;20197;-68
2024/03/15 01:31:51;;;;;;;11.37;7.50;;;12.50;99.90;;;;;;5110784;27;20196;-68
2024/03/15 01:34:19;;;;;;;11.37;7.80;;;12.50;99.90;;;;;;5111756;27;20888;-69
2024/03/15 01:36:46;;;;;;;13.10;8.13;;;12.50;99.90;;;;;;5090078;27;20205;-67
2024/03/15 01:39:13;;;;;;;12.83;8.80;;;12.50;99.90;;;;;;5107921;27;20699;-68
2024/03/15 01:41:40;;;;;;;12.17;8.37;;;12.50;99.90;;;;;;5115127;27;20252;-68
2024/03/15 01:44:07;;;;;;;12.77;8.37;;;12.50;99.90;;;;;;5090293;27;20246;-68
2024/03/15 01:46:35;;;;;;;12.83;8.17;;;12.50;99.90;;;;;;5114627;27;20267;-68
2024/03/15 01:49:02;;;;;;;13.60;9.10;;;12.50;99.90;;;;;;5110826;27;20310;-68
2024/03/15 01:51:30;;;;;;;15.53;9.17;;;12.50;99.90;;;;;;5116385;27;20651;-68
2024/03/15 01:54:00;;;;;;;13.80;8.73;;;12.50;99.90;;;;;;5114637;27;20688;-68
2024/03/15 01:56:26;;;;;;;13.77;8.30;;;12.50;99.90;;;;;;5136844;27;20201;-68
2024/03/15 01:58:53;;;;;;;14.47;8.87;;;12.50;99.90;;;;;;5111781;27;20202;-68
2024/03/15 02:01:21;;;;;;;16.53;9.70;;;12.50;99.90;;;;;;5117081;27;20232;-68
2024/03/15 02:03:49;;;;;;;12.70;8.10;;;12.50;99.90;;;;;;5097852;27;20211;-68
2024/03/15 02:06:16;;;;;;;15.17;9.03;;;12.50;99.90;;;;;;5105774;28;20201;-68
2024/03/15 02:08:43;;;;;;;15.47;9.37;;;12.50;99.90;;;;;;5107167;27;20197;-68
2024/03/15 02:11:11;;;;;;;17.47;9.90;;;12.50;99.90;;;;;;5094849;27;20244;-68
2024/03/15 02:13:38;;;;;;;17.00;10.17;;;12.50;99.90;;;;;;5131608;27;20210;-68
2024/03/15 02:16:07;;;;;;;16.60;9.93;;;12.40;99.90;;;;;;5146382;27;20223;-68
2024/03/15 02:18:35;;;;;;;12.77;8.00;;;12.40;99.90;;;;;;5113221;27;20626;-67
2024/03/15 02:21:05;;;;;;;11.17;6.93;;;12.40;99.90;;;;;;5105828;27;20193;-68
2024/03/15 02:23:32;;;;;;;13.47;8.13;;;12.40;99.90;;;;;;5116733;27;20192;-68
2024/03/15 02:25:59;;;;;;;14.30;8.90;;;12.40;99.90;;;;;;5115088;27;20249;-68
2024/03/15 02:28:26;;;;;;;11.30;7.30;;;12.40;99.90;;;;;;5115610;27;20196;-67
2024/03/15 02:30:53;;;;;;;11.00;7.13;;;12.40;99.90;;;;;;5115824;27;20197;-69
2024/03/15 02:33:20;;;;;;;12.07;7.40;;;12.40;99.90;;;;;;5110178;27;20282;-69
2024/03/15 02:35:47;;;;;;;12.87;8.00;;;12.40;99.90;;;;;;5114261;27;20196;-68
2024/03/15 02:38:16;;;;;;;11.93;8.03;;;12.40;99.90;;;;;;5112036;27;20199;-69
2024/03/15 02:40:43;;;;;;;15.77;9.27;;;12.40;99.90;;;;;;5111169;27;20283;-68
2024/03/15 02:43:10;;;;;;;13.83;8.40;;;12.40;99.90;;;;;;5111031;27;20216;-68
2024/03/15 02:45:37;;;;;;;15.60;8.50;;;12.40;99.90;;;;;;5114254;27;20208;-68
2024/03/15 02:48:05;;;;;;;16.40;10.20;;;12.40;99.90;;;;;;5105921;28;20189;-68
2024/03/15 02:50:32;;;;;;;14.50;9.10;;;12.40;99.90;;;;;;5121057;27;20204;-68
2024/03/15 02:53:03;;;;;;;17.50;10.70;;;12.40;99.90;;;;;;5115700;27;20283;-67
2024/03/15 02:55:30;;;;;;;15.83;9.53;;;12.40;99.90;;;;;;5113860;27;20559;-66
2024/03/15 02:57:57;;;;;;;16.40;9.57;;;12.40;99.90;;;;;;5103039;27;20237;-68
2024/03/15 03:00:24;;;;;;;10.53;7.43;;;12.40;99.90;;;;;;5115403;27;20227;-67
2024/03/15 03:02:53;;;;;;;14.70;8.43;;;12.40;99.90;;;;;;5107099;27;20203;-68
2024/03/15 03:05:20;;;;;;;13.67;8.93;;;12.40;99.90;;;;;;5140205;27;20229;-67
2024/03/15 03:07:49;;;;;;;12.93;8.00;;;12.40;99.90;;;;;;5140579;27;20200;-68
2024/03/15 03:10:16;;;;;;;14.67;9.07;;;12.40;99.90;;;;;;5141903;27;20326;-68
2024/03/15 03:12:43;;;;;;;15.17;9.00;;;12.40;99.90;;;;;;5137230;27;20233;-68
2024/03/15 03:15:11;;;;;;;17.00;9.50;;;12.40;99.90;;;;;;5112022;27;20199;-68
2024/03/15 03:17:38;;;;;;;17.90;10.73;;;12.40;99.90;;;;;;5106919;28;20279;-68
2024/03/15 03:20:11;;;;;;;16.53;10.37;;;12.40;99.90;;;;;;5127931;27;20223;-68
2024/03/15 03:22:38;;;;;;;18.30;10.57;;;12.40;99.90;;;;;;5112062;27;20280;-68
2024/03/15 03:25:06;;;;;;;18.87;11.40;;;12.40;99.90;;;;;;5112962;27;20257;-68
2024/03/15 03:27:34;;;;;;;18.07;10.77;;;12.40;99.90;;;;;;5118444;27;20195;-68
2024/03/15 03:30:01;;;;;;;17.00;11.00;;;12.30;99.90;;;;;;5107244;27;20217;-68
2024/03/15 03:32:28;;;;;;;20.43;12.43;;;12.30;99.90;;;;;;5112629;27;20248;-68
2024/03/15 03:34:56;;;;;;;25.70;15.03;;;12.30;99.90;;;;;;5112047;27;20196;-68
2024/03/15 03:37:23;;;;;;;32.43;16.67;;;12.30;99.90;;;;;;5114038;27;20195;-68
2024/03/15 03:39:50;;;;;;;20.20;13.17;;;12.30;99.90;;;;;;5114656;27;20246;-68
2024/03/15 03:42:20;;;;;;;24.13;14.07;;;12.20;99.90;;;;;;5114090;27;20666;-68
2024/03/15 03:44:47;;;;;;;24.83;14.77;;;12.20;99.90;;;;;;5102682;28;20626;-68
2024/03/15 03:47:14;;;;;;;26.93;15.27;;;12.20;99.90;;;;;;5135373;27;20501;-68
2024/03/15 03:49:41;;;;;;;25.80;15.10;;;12.20;99.90;;;;;;5112898;27;20199;-69
2024/03/15 03:52:08;;;;;;;23.90;13.30;;;12.20;99.90;;;;;;5113036;27;20188;-68
2024/03/15 03:54:37;;;;;;;27.10;15.03;;;12.10;99.90;;;;;;5112463;27;20193;-68
2024/03/15 03:57:04;;;;;;;24.23;14.20;;;12.10;99.90;;;;;;5111477;27;20725;-68
2024/03/15 03:59:31;;;;;;;23.53;13.67;;;12.10;99.90;;;;;;5111012;27;20297;-67
2024/03/15 04:01:58;;;;;;;25.90;14.13;;;12.10;99.90;;;;;;5107920;28;20245;-68
2024/03/15 04:04:26;;;;;;;27.80;14.97;;;12.10;99.90;;;;;;5096555;28;20295;-68
2024/03/15 04:06:53;;;;;;;23.77;13.33;;;12.00;99.90;;;;;;5114619;27;20206;-68
2024/03/15 04:09:21;;;;;;;24.80;14.57;;;12.00;99.90;;;;;;5103794;27;20183;-68
2024/03/15 04:11:48;;;;;;;26.60;15.07;;;12.00;99.90;;;;;;5103146;27;20240;-68
2024/03/15 04:14:15;;;;;;;24.73;14.43;;;12.00;99.90;;;;;;5114187;28;20183;-68
2024/03/15 04:16:44;;;;;;;28.67;16.47;;;11.90;99.90;;;;;;5114625;28;20199;-69
2024/03/15 04:19:12;;;;;;;27.77;15.60;;;11.90;99.90;;;;;;5111651;28;20598;-68
2024/03/15 04:21:42;;;;;;;25.13;14.27;;;11.90;99.90;;;;;;5113651;28;20199;-68
2024/03/15 04:24:09;;;;;;;27.73;15.47;;;11.90;99.90;;;;;;5091653;28;20249;-68
2024/03/15 04:26:37;;;;;;;26.77;15.23;;;11.90;99.90;;;;;;5115161;28;20544;-68
2024/03/15 04:29:05;;;;;;;30.03;16.40;;;11.90;99.90;;;;;;5113529;28;20301;-68
2024/03/15 04:31:32;;;;;;;29.40;16.33;;;11.80;99.90;;;;;;5141568;27;20252;-68
2024/03/15 04:33:59;;;;;;;33.70;18.13;;;11.80;99.90;;;;;;5131112;27;20195;-67
2024/03/15 04:36:26;;;;;;;36.27;18.37;;;11.80;99.90;;;;;;5116758;27;20213;-68
2024/03/15 04:38:54;;;;;;;38.20;19.67;;;11.70;99.90;;;;;;5117001;27;20561;-68
2024/03/15 04:41:22;;;;;;;33.63;17.07;;;11.70;99.90;;;;;;5114163;28;20230;-68
2024/03/15 04:43:49;;;;;;;35.30;19.73;;;11.70;99.90;;;;;;5111888;27;20231;-68
2024/03/15 04:46:17;;;;;;;32.37;18.17;;;11.60;99.90;;;;;;5118571;27;20271;-68
2024/03/15 04:48:45;;;;;;;28.60;15.90;;;11.60;99.90;;;;;;5109394;27;20684;-68
2024/03/15 04:51:12;;;;;;;27.77;14.80;;;11.60;99.90;;;;;;5116471;27;20290;-68
2024/03/15 04:53:39;;;;;;;21.73;13.27;;;11.50;99.90;;;;;;5147599;27;20203;-68
2024/03/15 04:56:07;;;;;;;22.43;13.43;;;11.50;99.90;;;;;;5144704;27;20218;-68
2024/03/15 04:58:34;;;;;;;26.93;15.00;;;11.50;99.90;;;;;;5115526;27;20206;-68
2024/03/15 05:01:01;;;;;;;29.03;15.73;;;11.50;99.90;;;;;;5100954;27;20683;-68
2024/03/15 05:03:32;;;;;;;25.40;13.87;;;11.50;99.90;;;;;;5116408;27;20242;-68
2024/03/15 05:05:59;;;;;;;37.23;18.40;;;11.50;99.90;;;;;;5107784;27;20252;-68
2024/03/15 05:08:27;;;;;;;36.57;17.60;;;11.50;99.90;;;;;;5107366;27;20232;-68
2024/03/15 05:10:55;;;;;;;39.00;20.27;;;11.50;99.90;;;;;;5112901;27;20218;-68
2024/03/15 05:13:22;;;;;;;35.60;19.33;;;11.40;99.90;;;;;;5106628;27;20276;-68
2024/03/15 05:15:49;;;;;;;38.57;20.00;;;11.40;99.90;;;;;;5114723;27;20206;-68
2024/03/15 05:18:16;;;;;;;36.80;19.20;;;11.30;99.90;;;;;;5117440;27;20553;-66
2024/03/15 05:20:43;;;;;;;38.23;19.50;;;11.20;99.90;;;;;;5116423;27;20279;-68
2024/03/15 05:23:10;;;;;;;30.80;17.03;;;11.10;99.90;;;;;;5117603;27;20191;-68
2024/03/15 05:25:37;;;;;;;36.23;18.40;;;11.10;99.90;;;;;;5114622;27;20218;-68
2024/03/15 05:28:05;;;;;;;33.50;18.60;;;11.10;99.90;;;;;;5114630;28;20228;-68
2024/03/15 05:30:32;;;;;;;36.07;18.90;;;11.00;99.90;;;;;;5085378;28;20657;-69
2024/03/15 05:32:59;;;;;;;36.70;18.93;;;11.00;99.90;;;;;;5112854;27;20203;-68
2024/03/15 05:35:26;;;;;;;35.80;18.20;;;11.00;99.90;;;;;;5115676;27;20194;-68
2024/03/15 05:37:54;;;;;;;39.20;19.50;;;10.90;99.90;;;;;;5110967;27;20190;-67
2024/03/15 05:40:23;;;;;;;31.13;17.27;;;10.90;99.90;;;;;;5113543;27;20642;-67
2024/03/15 05:42:53;;;;;;;41.57;20.90;;;10.90;99.90;;;;;;5115434;27;20187;-68
2024/03/15 05:45:21;;;;;;;29.70;16.33;;;10.90;99.90;;;;;;5117035;27;20290;-68
2024/03/15 05:47:50;;;;;;;36.43;17.93;;;10.80;99.90;;;;;;5115874;27;20202;-67
2024/03/15 05:50:17;;;;;;;30.50;16.67;;;10.90;99.90;;;;;;5110596;27;20201;-68
2024/03/15 05:52:44;;;;;;;32.70;17.10;;;10.80;99.90;;;;;;5116706;27;20198;-68
2024/03/15 05:55:13;;;;;;;30.53;16.57;;;10.80;99.90;;;;;;5104728;28;20196;-68
2024/03/15 05:57:41;;;;;;;26.60;14.73;;;10.80;99.90;;;;;;5143652;27;20216;-68
2024/03/15 06:00:13;;;;;;;26.27;14.27;;;10.70;99.90;;;;;;5116852;27;20699;-68
2024/03/15 06:02:40;;;;;;;30.07;16.33;;;10.80;99.90;;;;;;5112739;27;20192;-68
2024/03/15 06:05:08;;;;;;;34.27;18.20;;;10.80;99.90;;;;;;5106209;27;20221;-67
2024/03/15 06:07:36;;;;;;;31.80;17.20;;;10.90;99.90;;;;;;5108206;27;20205;-68
2024/03/15 06:10:04;;;;;;;37.53;19.07;;;10.80;99.90;;;;;;5107424;27;20542;-68
2024/03/15 06:12:31;;;;;;;34.57;18.57;;;10.80;99.90;;;;;;5133261;27;20900;-68
2024/03/15 06:14:58;;;;;;;30.33;16.90;;;10.90;99.90;;;;;;5113649;27;20186;-68
2024/03/15 06:17:26;;;;;;;32.27;18.13;;;10.90;99.90;;;;;;5112922;27;20203;-67
2024/03/15 06:19:55;;;;;;;41.10;20.30;;;10.80;99.90;;;;;;5140089;27;20258;-68
2024/03/15 06:22:23;;;;;;;31.40;17.17;;;10.80;99.90;;;;;;5109695;27;20211;-67
2024/03/15 06:24:52;;;;;;;38.77;18.43;;;10.80;99.90;;;;;;5098798;27;20278;-68
2024/03/15 06:27:20;;;;;;;34.90;19.20;;;10.90;99.90;;;;;;5085325;27;20196;-68
2024/03/15 06:29:52;;;;;;;35.07;17.80;;;10.90;99.90;;;;;;5116257;27;20198;-68
2024/03/15 06:32:25;;;;;;;35.23;18.00;;;10.90;99.90;;;;;;5112442;27;20202;-68
2024/03/15 06:34:53;;;;;;;29.53;16.93;;;10.90;99.90;;;;;;5114985;27;20191;-69
2024/03/15 06:37:22;;;;;;;33.70;17.93;;;10.90;99.90;;;;;;5110772;27;20649;-69
2024/03/15 06:40:03;;;;;;;32.97;16.47;;;10.90;99.90;;;;;;5115287;27;20550;-69
2024/03/15 06:42:49;;;;;;;32.90;17.27;;;10.90;99.90;;;;;;5113323;27;20198;-68
2024/03/15 06:45:25;;;;;;;30.60;16.70;;;10.90;99.90;;;;;;5116045;27;20602;-67
2024/03/15 06:48:02;;;;;;;36.37;19.03;;;11.00;99.90;;;;;;5113822;27;20205;-68
2024/03/15 06:50:47;;;;;;;37.90;19.43;;;11.00;99.90;;;;;;5113250;27;20199;-68
2024/03/15 06:53:16;;;;;;;31.83;17.00;;;11.00;99.90;;;;;;5133270;27;20191;-69
2024/03/15 06:55:44;;;;;;;37.43;19.03;;;11.00;99.90;;;;;;5139560;27;20223;-68
2024/03/15 06:58:11;;;;;;;33.63;18.10;;;11.00;99.90;;;;;;5113905;27;20290;-69
2024/03/15 07:00:38;;;;;;;42.50;20.07;;;11.00;99.90;;;;;;5097740;27;20381;-68
2024/03/15 07:03:07;;;;;;;39.10;19.93;;;11.10;99.90;;;;;;5111050;27;20281;-68
2024/03/15 07:05:34;;;;;;;34.20;18.67;;;11.10;99.90;;;;;;5111138;28;20310;-68
2024/03/15 07:08:05;;;;;;;31.40;16.60;;;11.20;99.90;;;;;;5136203;27;20193;-67
2024/03/15 07:10:34;;;;;;;37.27;18.63;;;11.30;99.90;;;;;;5138390;27;20203;-68
2024/03/15 07:13:02;;;;;;;41.83;20.03;;;11.30;99.90;;;;;;5115256;27;20187;-67
2024/03/15 07:15:30;;;;;;;35.47;19.50;;;11.40;99.90;;;;;;5109808;27;20218;-68
2024/03/15 07:18:04;;;;;;;29.43;16.73;;;11.50;99.90;;;;;;5110510;28;20198;-67
2024/03/15 07:20:32;;;;;;;33.13;18.03;;;11.60;99.90;;;;;;5143428;27;20226;-67
2024/03/15 07:22:59;;;;;;;41.17;20.27;;;11.70;99.90;;;;;;5099539;28;20225;-67
2024/03/15 07:25:26;;;;;;;32.63;18.83;;;11.70;99.90;;;;;;5111288;27;20209;-68
2024/03/15 07:27:56;;;;;;;35.17;18.57;;;11.70;99.90;;;;;;5114265;27;20199;-68
2024/03/15 07:30:23;;;;;;;35.37;18.60;;;11.70;99.90;;;;;;5100815;27;20191;-68
2024/03/15 07:32:51;;;;;;;32.30;16.47;;;11.80;99.90;;;;;;5114765;27;20207;-69
2024/03/15 07:35:18;;;;;;;35.83;19.60;;;11.80;99.90;;;;;;5112925;27;20687;-69
2024/03/15 07:37:47;;;;;;;32.53;17.63;;;11.90;99.90;;;;;;5105766;28;20244;-68
2024/03/15 07:40:14;;;;;;;41.03;18.90;;;12.00;99.90;;;;;;5105834;27;20199;-68
2024/03/15 07:42:42;;;;;;;38.23;19.63;;;12.00;99.90;;;;;;5114954;27;20203;-68
2024/03/15 07:45:10;;;;;;;32.07;16.80;;;12.10;99.90;;;;;;5111425;27;20196;-68
2024/03/15 07:47:37;;;;;;;33.77;18.47;;;12.20;99.90;;;;;;5105055;28;20214;-68
2024/03/15 07:50:04;;;;;;;33.03;17.00;;;12.30;99.90;;;;;;5140900;27;20244;-68
2024/03/15 07:52:32;;;;;;;37.07;19.07;;;12.40;99.90;;;;;;5088491;28;20287;-68
2024/03/15 07:54:59;;;;;;;31.03;17.47;;;12.50;99.90;;;;;;5134085;27;20193;-68
2024/03/15 07:57:28;;;;;;;32.50;18.03;;;12.60;99.90;;;;;;5114110;27;20195;-68
2024/03/15 07:59:55;;;;;;;33.80;17.80;;;12.70;99.90;;;;;;5111084;27;20608;-67
2024/03/15 08:02:24;;;;;;;29.63;16.53;;;12.80;99.90;;;;;;5102535;28;20223;-68
2024/03/15 08:04:51;;;;;;;30.60;16.77;;;13.10;99.90;;;;;;5102894;27;20200;-67
2024/03/15 08:07:19;;;;;;;34.10;16.63;;;13.40;99.90;;;;;;5096439;27;20303;-68
2024/03/15 08:09:47;;;;;;;31.63;17.70;;;13.70;99.90;;;;;;5128053;27;20197;-68
2024/03/15 08:12:15;;;;;;;32.33;16.63;;;14.00;99.90;;;;;;5099450;28;20293;-68
2024/03/15 08:14:42;;;;;;;29.17;15.33;;;14.10;99.90;;;;;;5135325;27;20233;-69
2024/03/15 08:17:10;;;;;;;23.80;15.07;;;14.20;99.90;;;;;;5102113;27;20260;-69
2024/03/15 08:19:38;;;;;;;31.97;17.80;;;14.40;99.90;;;;;;5102414;28;20284;-67
2024/03/15 08:22:06;;;;;;;37.50;19.50;;;14.60;99.90;;;;;;5094515;28;20277;-68
2024/03/15 08:24:33;;;;;;;39.53;19.17;;;14.70;99.90;;;;;;5110942;28;20341;-68
2024/03/15 08:27:02;;;;;;;31.40;16.83;;;14.90;99.90;;;;;;5107763;28;20238;-68
2024/03/15 08:29:29;;;;;;;33.17;18.37;;;15.00;99.90;;;;;;5141018;27;20198;-68
2024/03/15 08:31:57;;;;;;;34.23;18.40;;;15.00;99.90;;;;;;5113582;28;20213;-67
2024/03/15 08:34:25;;;;;;;33.83;18.77;;;14.90;99.90;;;;;;5111203;28;20288;-67
2024/03/15 08:36:53;;;;;;;32.73;17.43;;;14.70;99.90;;;;;;5113637;28;20215;-68
2024/03/15 08:39:24;;;;;;;30.93;16.67;;;14.50;99.90;;;;;;5104736;28;20212;-68
2024/03/15 08:41:51;;;;;;;36.80;18.73;;;14.40;99.90;;;;;;5113268;28;20205;-68
2024/03/15 08:44:18;;;;;;;32.97;17.83;;;14.40;99.90;;;;;;5102463;28;20252;-68
2024/03/15 08:46:46;;;;;;;42.07;20.30;;;14.30;99.90;;;;;;5145929;27;20214;-69
2024/03/15 08:49:15;;;;;;;36.67;19.07;;;14.10;99.90;;;;;;5113919;28;20198;-69
2024/03/15 08:51:46;;;;;;;38.33;19.03;;;14.00;99.90;;;;;;5110608;28;20194;-69
2024/03/15 08:54:13;;;;;;;37.97;18.50;;;13.80;99.90;;;;;;5104711;28;20647;-68
2024/03/15 08:56:40;;;;;;;35.50;18.70;;;13.70;99.90;;;;;;5113063;28;20228;-69
2024/03/15 08:59:08;;;;;;;33.33;17.43;;;13.60;99.90;;;;;;5088021;28;20252;-68
2024/03/15 09:01:35;;;;;;;39.97;20.30;;;13.60;99.90;;;;;;5131377;27;20225;-68
2024/03/15 09:04:04;;;;;;;39.97;20.80;;;13.50;99.90;;;;;;5127058;27;20202;-68
2024/03/15 09:06:33;;;;;;;32.77;17.27;;;13.40;99.90;;;;;;5135443;27;20214;-68
2024/03/15 09:09:07;;;;;;;37.67;18.67;;;13.40;99.90;;;;;;5126511;27;20191;-68
2024/03/15 09:11:34;;;;;;;35.00;18.57;;;13.40;99.90;;;;;;5121879;28;20317;-67
2024/03/15 09:14:01;;;;;;;42.10;21.03;;;13.40;99.90;;;;;;5128172;27;20657;-68
2024/03/15 09:16:30;;;;;;;38.20;20.77;;;13.40;99.90;;;;;;5107413;28;20219;-67
2024/03/15 09:18:59;;;;;;;36.80;18.73;;;13.40;99.90;;;;;;5125549;27;20335;-69
2024/03/15 09:21:26;;;;;;;38.53;18.80;;;13.40;99.90;;;;;;5133403;27;20550;-69
2024/03/15 09:23:53;;;;;;;36.10;18.67;;;13.50;99.90;;;;;;5116614;27;20593;-68
2024/03/15 09:26:21;;;;;;;30.70;16.73;;;13.60;99.90;;;;;;5105795;28;20263;-69
2024/03/15 09:28:49;;;;;;;37.53;18.83;;;13.90;99.90;;;;;;5131901;27;20248;-68
2024/03/15 09:31:19;;;;;;;32.37;17.50;;;14.30;99.90;;;;;;5133091;27;20209;-68
2024/03/15 09:33:47;;;;;;;35.57;19.23;;;14.70;99.90;;;;;;5109808;27;20226;-69
2024/03/15 09:36:17;;;;;;;31.90;17.77;;;15.00;99.90;;;;;;5113760;27;20221;-69
2024/03/15 09:38:49;;;;;;;32.07;18.67;;;15.20;99.90;;;;;;5103598;27;20281;-69
2024/03/15 09:41:16;;;;;;;30.63;16.60;;;15.40;99.90;;;;;;5133049;27;20196;-68
2024/03/15 09:43:45;;;;;;;35.03;18.73;;;15.70;99.90;;;;;;5116373;27;20195;-68
2024/03/15 09:46:13;;;;;;;33.57;18.90;;;15.90;99.90;;;;;;5135571;27;20214;-68
2024/03/15 09:48:41;;;;;;;33.07;18.47;;;16.10;99.90;;;;;;5112766;27;20267;-68
2024/03/15 09:51:08;;;;;;;33.33;19.47;;;16.20;99.90;;;;;;5093353;28;20630;-69
2024/03/15 09:53:36;;;;;;;40.80;20.50;;;16.50;99.90;;;;;;5137887;27;20200;-68
2024/03/15 09:56:03;;;;;;;33.00;18.33;;;16.90;99.90;;;;;;5114631;27;20192;-68
2024/03/15 09:58:31;;;;;;;38.17;21.10;;;17.50;99.80;;;;;;5112358;27;20187;-68
2024/03/15 10:00:59;;;;;;;32.93;17.37;;;18.00;98.30;;;;;;5110122;28;20652;-68
2024/03/15 10:03:27;;;;;;;34.53;17.15;;;18.50;97.80;;;;;;5107255;27;20508;-68
2024/03/15 10:05:55;;;;;;;31.53;17.33;;;19.20;96.70;;;;;;5110915;27;20194;-68
2024/03/15 10:08:23;;;;;;;34.08;19.15;;;20.00;95.60;;;;;;5108122;28;20206;-68
2024/03/15 10:10:50;;;;;;;30.33;17.48;;;20.20;93.30;;;;;;5108356;27;20595;-68
2024/03/15 10:13:18;;;;;;;33.33;17.83;;;19.80;92.40;;;;;;5139353;27;20210;-69
2024/03/15 10:15:45;;;;;;;29.15;17.00;;;19.30;92.70;;;;;;5132784;27;20200;-69
2024/03/15 10:18:12;;;;;;;25.90;15.38;;;19.10;93.30;;;;;;5106628;28;20340;-68
2024/03/15 10:20:40;;;;;;;25.02;13.93;;;19.20;93.60;;;;;;5142266;27;20251;-69
2024/03/15 10:23:07;;;;;;;29.00;16.13;;;19.30;93.50;;;;;;5127960;27;20255;-69
2024/03/15 10:25:35;;;;;;;29.10;16.15;;;19.50;92.50;;;;;;5104000;27;20195;-69
2024/03/15 10:28:03;;;;;;;32.50;17.77;;;19.70;91.90;;;;;;5116364;27;20256;-68
2024/03/15 10:30:31;;;;;;;32.55;18.05;;;19.90;91.10;;;;;;5113252;27;20194;-69
2024/03/15 10:32:59;;;;;;;33.67;19.05;;;20.10;90.20;;;;;;5111736;27;20201;-68
2024/03/15 10:35:27;;;;;;;33.35;18.45;;;20.10;89.30;;;;;;5114673;27;20251;-68
2024/03/15 10:37:54;;;;;;;36.15;19.48;;;19.90;88.80;;;;;;5114635;27;20236;-70
2024/03/15 10:40:21;;;;;;;38.85;21.15;;;19.70;89.10;;;;;;5103375;27;20195;-68
2024/03/15 10:42:49;;;;;;;30.10;17.02;;;19.40;89.20;;;;;;5112939;27;20731;-68
2024/03/15 10:45:16;;;;;;;27.73;15.70;;;19.00;90.00;;;;;;5111742;27;20677;-69
2024/03/15 10:47:44;;;;;;;32.92;17.02;;;18.70;90.50;;;;;;5115459;27;20245;-69
2024/03/15 10:50:12;;;;;;;31.30;16.83;;;18.70;90.90;;;;;;5101416;27;20275;-69
2024/03/15 10:52:40;;;;;;;31.50;18.08;;;18.60;91.00;;;;;;5114387;27;20196;-69
2024/03/15 10:55:09;;;;;;;32.25;17.80;;;18.60;90.90;;;;;;5111441;27;20222;-69
2024/03/15 10:57:36;;;;;;;27.65;15.77;;;18.60;90.80;;;;;;5139438;27;20199;-69
2024/03/15 11:00:14;;;;;;;39.22;18.80;;;18.50;91.10;;;;;;5108344;27;20207;-69
2024/03/15 11:02:43;;;;;;;34.55;18.30;;;18.40;91.10;;;;;;5111415;27;20255;-69
2024/03/15 11:05:14;;;;;;;35.50;18.67;;;18.20;90.90;;;;;;5139373;27;20195;-70
2024/03/15 11:07:41;;;;;;;30.67;17.08;;;17.80;91.20;;;;;;5101447;28;20196;-68
2024/03/15 11:10:10;;;;;;;35.17;19.25;;;17.60;91.70;;;;;;5108269;27;20236;-69
2024/03/15 11:12:38;;;;;;;39.00;20.55;;;17.40;92.20;;;;;;5113882;27;20199;-69
2024/03/15 11:15:12;;;;;;;35.08;19.33;;;17.30;92.60;;;;;;5113065;27;20608;-69
2024/03/15 11:17:40;;;;;;;30.83;17.20;;;17.10;92.50;;;;;;5115363;27;20187;-68
2024/03/15 11:20:09;;;;;;;25.73;15.07;;;17.00;92.80;;;;;;5100623;28;20629;-68
2024/03/15 11:22:36;;;;;;;32.40;17.13;;;16.90;93.20;;;;;;5135720;27;20197;-67
2024/03/15 11:25:05;;;;;;;32.97;17.95;;;16.90;93.40;;;;;;5112524;27;20237;-68
2024/03/15 11:27:32;;;;;;;28.05;15.73;;;16.80;93.50;;;;;;5114080;27;20207;-68
2024/03/15 11:29:59;;;;;;;35.33;18.45;;;16.80;93.50;;;;;;5113036;27;20194;-68
2024/03/15 11:32:26;;;;;;;38.53;18.50;;;16.90;93.00;;;;;;5113845;27;20277;-69
2024/03/15 11:34:53;;;;;;;30.07;16.37;;;16.80;92.60;;;;;;5113016;27;20251;-69
2024/03/15 11:37:23;;;;;;;30.67;17.17;;;16.90;92.70;;;;;;5140647;27;20198;-68
2024/03/15 11:40:00;;;;;;;27.23;15.80;;;16.90;92.80;;;;;;5096516;27;20199;-69
2024/03/15 11:42:27;;;;;;;29.93;16.40;;;16.80;92.50;;;;;;5108555;27;20192;-69
2024/03/15 11:44:55;;;;;;;28.13;16.53;;;16.80;92.50;;;;;;5112369;28;20204;-68
2024/03/15 11:47:23;;;;;;;28.63;16.00;;;16.80;92.60;;;;;;5104477;27;20563;-68
2024/03/15 11:49:56;;;;;;;28.10;14.23;;;16.80;92.50;;;;;;5113378;27;20226;-68
2024/03/15 11:52:23;;;;;;;26.97;14.90;;;16.80;92.50;;;;;;5136679;27;20265;-69
2024/03/15 11:54:54;;;;;;;28.53;16.10;;;16.90;92.70;;;;;;5106472;27;20246;-69
2024/03/15 11:57:22;;;;;;;27.08;15.90;;;16.90;92.40;;;;;;5089462;27;20209;-68
2024/03/15 11:59:49;;;;;;;23.83;14.03;;;16.80;92.20;;;;;;5105127;28;20205;-69
2024/03/15 12:02:17;;;;;;;26.60;15.53;;;16.90;92.30;;;;;;5094536;28;20299;-69
2024/03/15 12:04:45;;;;;;;29.27;15.37;;;17.10;92.30;;;;;;5127177;27;20274;-69
2024/03/15 12:07:12;;;;;;;29.52;14.98;;;17.40;92.20;;;;;;5114706;27;20734;-69
2024/03/15 12:09:42;;;;;;;27.45;14.73;;;17.70;91.50;;;;;;5099859;27;20211;-68
2024/03/15 12:12:10;;;;;;;25.52;14.73;;;17.90;90.70;;;;;;5114913;27;20245;-69
2024/03/15 12:14:41;;;;;;;26.67;14.93;;;18.10;90.40;;;;;;5113395;27;20213;-69
2024/03/15 12:17:10;;;;;;;25.40;14.23;;;18.20;90.10;;;;;;5113905;27;20211;-69
2024/03/15 12:19:37;;;;;;;27.13;15.35;;;18.40;89.70;;;;;;5100575;28;20320;-68
2024/03/15 12:22:04;;;;;;;24.42;14.18;;;18.50;89.10;;;;;;5107406;28;20203;-69
2024/03/15 12:24:33;;;;;;;25.20;14.40;;;18.70;89.20;;;;;;5137155;27;20218;-68
2024/03/15 12:27:00;;;;;;;26.08;14.98;;;18.90;88.40;;;;;;5113445;28;20213;-69
2024/03/15 12:29:28;;;;;;;28.42;15.98;;;19.00;87.20;;;;;;5141932;27;20207;-68
2024/03/15 12:31:56;;;;;;;31.85;16.88;;;18.90;86.10;;;;;;5112069;28;20190;-69